Date,TemperatureHighF,TemperatureAvgF,TemperatureLowF,DewpointHighF,DewpointAvgF,DewpointLowF,HumidityHigh,HumidityAvg,HumidityLow,PressureMaxIn,PressureMinIn,WindSpeedMaxMPH,WindSpeedAvgMPH,GustSpeedMaxMPH,PrecipitationSumIn
2014-2-1,70.7,51.2,36.7,41.8,36.5,29.9,98,62,30,30.03,29.92,12,3,0,0.00
2014-2-2,67.3,51.1,39.2,49.0,36.6,25.9,96,60,32,30.07,29.93,16,5,0,0.01
2014-2-3,63.5,51.6,42.3,49.7,46.0,42.8,102,83,53,29.96,29.86,15,4,0,0.02
2014-2-4,65.8,53.3,43.3,48.8,45.9,41.4,94,77,53,30.05,29.94,14,4,0,0.00
2014-2-5,69.1,54.5,43.5,49.9,47.0,41.9,98,78,46,30.10,29.96,11,3,0,0.00
2014-2-6,59.4,52.6,47.1,54.8,50.4,45.4,102,92,76,30.05,29.96,10,2,0,0.08
2014-2-7,66.0,56.1,50.4,57.0,52.6,50.5,102,89,63,30.18,30.00,10,3,0,0.02
2014-2-8,69.6,57.2,46.2,55.3,52.3,46.7,102,85,56,30.24,30.14,11,4,0,0.00
2014-2-9,70.2,58.9,52.7,57.9,54.3,52.1,99,85,61,30.19,30.05,11,3,0,0.00
2014-2-10,72.5,57.4,47.1,59.6,54.1,47.6,102,90,64,30.12,29.96,13,3,0,0.00
2014-2-11,77.9,58.7,45.7,59.4,53.0,46.2,102,84,50,30.06,29.97,10,2,0,0.00
2014-2-12,83.1,64.4,51.3,54.0,50.0,45.3,89,64,32,30.12,29.98,11,4,0,0.00
2014-2-13,85.1,64.5,49.6,52.3,47.2,42.1,82,58,24,30.05,29.92,10,4,0,0.00
2014-2-14,84.2,64.4,49.8,54.7,48.2,43.7,81,59,32,30.02,29.90,10,3,0,0.00
2014-2-15,82.9,63.6,50.4,55.4,48.1,42.0,85,60,32,30.00,29.91,11,4,0,0.00
2014-2-16,77.9,60.7,49.5,60.2,52.3,45.2,95,76,48,30.04,29.92,11,3,0,0.00
2014-2-17,73.6,58.5,47.3,60.2,53.6,46.2,100,85,60,30.05,29.93,12,4,0,0.00
2014-2-18,72.0,58.8,52.0,56.8,54.0,52.0,100,85,54,30.05,29.90,11,2,0,0.00
2014-2-19,69.1,56.2,46.8,58.3,53.4,47.3,102,91,66,29.99,29.85,14,3,0,0.00
2014-2-20,87.4,66.7,45.5,56.2,43.8,34.4,102,53,19,30.00,29.90,14,4,0,0.00
2014-2-21,81.5,64.7,50.7,54.1,42.6,33.7,76,46,26,29.96,29.82,9,4,0,0.00
2014-2-22,76.1,59.1,44.4,51.5,44.4,39.6,85,62,32,29.91,29.82,9,3,0,0.00
2014-2-23,76.6,59.6,41.5,55.5,47.5,39.1,102,68,37,29.97,29.86,11,4,0,0.00
2014-2-24,77.2,59.9,46.0,57.0,50.6,45.0,102,76,42,30.00,29.87,11,4,0,0.00
2014-2-25,78.1,59.5,47.8,57.8,54.0,48.3,102,84,46,30.03,29.91,17,3,0,0.00
2014-2-26,68.4,60.3,52.0,56.3,54.5,51.7,99,82,64,30.05,29.97,10,3,0,0.00
2014-2-27,75.4,62.0,54.5,62.7,57.1,53.1,102,86,50,30.00,29.82,11,3,0,0.44
2014-2-28,147.4,57.4,53.1,99.9,54.2,-99.9,99,97,96,29.84,29.63,25,-16,0,1.89